Time;durP1;ratioP1;P1;durP2;ratioP2;P2;SDS_P1;SDS_P2;PMS_P1;PMS_P2;Temp;Humidity;BMP_temperature;BMP_pressure;BME280_temperature;BME280_humidity;BME280_pressure;Samples;Min_cycle;Max_cycle;Signal;HPM_P1;HPM_P2
2023/09/09 00:01:14;;;;;;;13.57;8.07;;;19.80;89.20;;;;;;4971143;28;20030;-81
2023/09/09 00:03:39;;;;;;;10.13;7.93;;;19.90;89.70;;;;;;4976564;28;20037;-80
2023/09/09 00:06:11;;;;;;;10.10;8.05;;;19.80;89.30;;;;;;4973033;28;20065;-80
2023/09/09 00:08:37;;;;;;;9.63;8.40;;;19.80;89.10;;;;;;4970012;28;20038;-80
2023/09/09 00:11:03;;;;;;;9.18;7.60;;;19.70;90.20;;;;;;4973478;28;20101;-80
2023/09/09 00:13:29;;;;;;;10.82;8.07;;;19.60;89.60;;;;;;4975345;28;20030;-80
2023/09/09 00:15:54;;;;;;;9.48;8.27;;;19.70;89.60;;;;;;4973576;28;20050;-80
2023/09/09 00:18:20;;;;;;;9.32;7.90;;;19.60;90.30;;;;;;4973785;28;20379;-80
2023/09/09 00:20:45;;;;;;;10.57;7.68;;;19.60;89.40;;;;;;4969868;28;20046;-81
2023/09/09 00:23:12;;;;;;;9.23;8.32;;;19.60;89.50;;;;;;4942056;28;20415;-81
2023/09/09 00:25:38;;;;;;;10.05;8.15;;;19.60;89.00;;;;;;4970510;28;20043;-82
2023/09/09 00:28:04;;;;;;;10.35;8.02;;;19.50;89.30;;;;;;4959393;28;20675;-81
2023/09/09 00:30:30;;;;;;;16.55;8.20;;;19.40;90.00;;;;;;4954727;28;20037;-81
2023/09/09 00:32:57;;;;;;;10.40;8.00;;;19.40;90.20;;;;;;4977036;28;20034;-81
2023/09/09 00:35:22;;;;;;;9.15;8.23;;;19.40;90.10;;;;;;4973201;28;20434;-80
2023/09/09 00:37:48;;;;;;;9.30;7.63;;;19.30;90.70;;;;;;4957152;28;20094;-81
2023/09/09 00:40:14;;;;;;;8.63;7.80;;;19.30;90.50;;;;;;4937492;28;20038;-81
2023/09/09 00:42:39;;;;;;;9.13;7.95;;;19.20;90.30;;;;;;4961709;28;20046;-81
2023/09/09 00:45:05;;;;;;;10.93;8.10;;;19.10;92.50;;;;;;4952000;28;20030;-81
2023/09/09 00:47:31;;;;;;;8.63;7.72;;;19.10;90.50;;;;;;4958037;28;20037;-81
2023/09/09 00:49:58;;;;;;;10.20;8.07;;;19.10;90.40;;;;;;5002484;28;20092;-81
2023/09/09 00:52:23;;;;;;;9.07;8.18;;;19.10;90.80;;;;;;4975347;28;20129;-80
2023/09/09 00:54:49;;;;;;;9.88;7.85;;;19.00;90.70;;;;;;4957768;28;20102;-81
2023/09/09 00:57:16;;;;;;;9.68;7.88;;;18.90;90.70;;;;;;4951978;28;20108;-80
2023/09/09 00:59:41;;;;;;;8.10;7.13;;;19.00;91.70;;;;;;4970755;28;20502;-80
2023/09/09 01:02:07;;;;;;;8.77;7.55;;;18.90;91.40;;;;;;4969674;28;20070;-81
2023/09/09 01:04:32;;;;;;;12.27;7.43;;;18.90;90.90;;;;;;4954024;28;20510;-81
2023/09/09 01:07:00;;;;;;;10.32;7.85;;;18.80;91.00;;;;;;4971007;28;20484;-81
2023/09/09 01:09:26;;;;;;;9.07;8.13;;;18.80;91.70;;;;;;4968316;28;20034;-81
2023/09/09 01:11:51;;;;;;;10.73;8.52;;;18.80;91.30;;;;;;4974003;28;20026;-80
2023/09/09 01:14:17;;;;;;;10.65;8.02;;;18.80;92.00;;;;;;4956053;28;20038;-81
2023/09/09 01:16:43;;;;;;;9.45;8.25;;;18.70;91.30;;;;;;4971150;28;20037;-80
2023/09/09 01:19:08;;;;;;;9.52;8.48;;;18.70;91.50;;;;;;4972938;28;20042;-80
2023/09/09 01:21:34;;;;;;;9.65;8.30;;;18.70;91.30;;;;;;4968677;28;20057;-80
2023/09/09 01:24:00;;;;;;;10.90;8.65;;;18.70;91.80;;;;;;4968675;28;20049;-80
2023/09/09 01:26:26;;;;;;;8.60;7.25;;;18.70;91.90;;;;;;4970088;28;20031;-80
2023/09/09 01:28:51;;;;;;;9.32;7.43;;;18.70;91.80;;;;;;4969242;28;20039;-80
2023/09/09 01:31:17;;;;;;;10.48;8.43;;;18.70;92.00;;;;;;4987149;28;20030;-81
2023/09/09 01:33:43;;;;;;;10.07;7.75;;;18.60;91.20;;;;;;4974615;28;20041;-80
2023/09/09 01:36:09;;;;;;;11.10;7.75;;;18.60;91.80;;;;;;4972764;28;20110;-81
2023/09/09 01:38:35;;;;;;;10.32;8.13;;;18.50;92.40;;;;;;4971214;28;20122;-80
2023/09/09 01:41:02;;;;;;;9.65;7.63;;;18.40;92.70;;;;;;4954948;28;20444;-81
2023/09/09 01:43:28;;;;;;;8.50;7.60;;;18.50;93.20;;;;;;4952065;28;20510;-80
2023/09/09 01:45:53;;;;;;;11.32;8.57;;;18.40;92.40;;;;;;4951880;28;20031;-80
2023/09/09 01:48:19;;;;;;;11.48;7.35;;;18.40;93.00;;;;;;4968193;28;20070;-80
2023/09/09 01:50:45;;;;;;;11.05;8.20;;;18.40;92.20;;;;;;4972187;28;20031;-80
2023/09/09 01:53:11;;;;;;;9.55;8.00;;;18.30;91.60;;;;;;4971931;28;20119;-81
2023/09/09 01:55:36;;;;;;;12.63;7.55;;;18.40;91.90;;;;;;4955396;28;20605;-81
2023/09/09 01:58:02;;;;;;;15.05;8.20;;;18.30;92.70;;;;;;4958586;28;20484;-80
2023/09/09 02:00:29;;;;;;;9.68;7.18;;;18.30;92.10;;;;;;4971161;28;20049;-81
2023/09/09 02:02:55;;;;;;;9.13;7.22;;;18.20;92.60;;;;;;4967602;28;20431;-80
2023/09/09 02:05:20;;;;;;;9.63;7.55;;;18.20;92.90;;;;;;4970937;28;20041;-80
2023/09/09 02:07:46;;;;;;;9.60;8.60;;;18.10;92.60;;;;;;4949984;28;20042;-80
2023/09/09 02:10:11;;;;;;;9.48;7.50;;;18.20;92.70;;;;;;4963254;28;20077;-80
2023/09/09 02:12:37;;;;;;;10.60;7.57;;;18.10;92.90;;;;;;4972486;28;20038;-80
2023/09/09 02:15:03;;;;;;;9.27;7.85;;;18.10;92.20;;;;;;4970948;28;20039;-81
2023/09/09 02:17:29;;;;;;;11.07;8.23;;;18.00;92.50;;;;;;4968313;28;20564;-80
2023/09/09 02:19:55;;;;;;;10.50;8.00;;;18.00;92.50;;;;;;4951197;28;20055;-81
2023/09/09 02:22:21;;;;;;;9.15;7.88;;;17.90;93.10;;;;;;4970125;28;20434;-80
2023/09/09 02:24:47;;;;;;;11.32;8.38;;;17.90;92.90;;;;;;4952973;28;20052;-80
2023/09/09 02:27:13;;;;;;;9.43;8.50;;;17.90;92.50;;;;;;4972300;28;20041;-81
2023/09/09 02:29:38;;;;;;;7.75;7.05;;;17.90;93.20;;;;;;4957575;28;20035;-80
2023/09/09 02:32:04;;;;;;;9.05;7.68;;;17.80;92.70;;;;;;4973869;28;20660;-80
2023/09/09 02:34:29;;;;;;;10.07;7.85;;;17.80;92.90;;;;;;4971402;28;20383;-80
2023/09/09 02:37:16;;;;;;;9.25;8.30;;;17.70;94.30;;;;;;4960293;28;20061;-79
2023/09/09 02:39:43;;;;;;;15.18;8.68;;;17.70;94.40;;;;;;4954018;28;20109;-80
2023/09/09 02:42:13;;;;;;;9.68;8.25;;;17.70;96.30;;;;;;4972243;28;20042;-80
2023/09/09 02:44:39;;;;;;;11.23;8.68;;;17.70;95.80;;;;;;4970840;28;20034;-80
2023/09/09 02:47:06;;;;;;;8.55;7.65;;;17.70;94.20;;;;;;4971028;28;20503;-80
2023/09/09 02:49:31;;;;;;;8.75;7.85;;;17.70;93.80;;;;;;4971639;28;20034;-80
2023/09/09 02:51:57;;;;;;;10.38;7.93;;;17.60;93.80;;;;;;4971645;28;20027;-80
2023/09/09 02:54:22;;;;;;;8.80;7.68;;;17.50;93.80;;;;;;4972695;28;20035;-80
2023/09/09 02:56:48;;;;;;;13.68;8.48;;;17.40;94.10;;;;;;4974229;28;20283;-80
2023/09/09 02:59:13;;;;;;;9.32;8.32;;;17.40;94.80;;;;;;4972453;28;20191;-81
2023/09/09 03:01:39;;;;;;;12.15;8.45;;;17.20;94.90;;;;;;4974676;28;20038;-81
2023/09/09 03:04:05;;;;;;;11.38;8.05;;;17.30;96.00;;;;;;4973905;28;20047;-81
2023/09/09 03:06:31;;;;;;;9.98;7.70;;;17.20;95.30;;;;;;4952167;28;20027;-80
2023/09/09 03:08:56;;;;;;;10.70;8.18;;;17.20;95.10;;;;;;4984897;28;20037;-80
2023/09/09 03:11:22;;;;;;;10.35;8.90;;;17.20;95.00;;;;;;4956767;28;20121;-80
2023/09/09 03:13:47;;;;;;;9.27;8.35;;;17.30;94.70;;;;;;4973400;28;20073;-80
2023/09/09 03:16:13;;;;;;;10.70;8.50;;;17.30;94.80;;;;;;4971902;28;20026;-80
2023/09/09 03:18:39;;;;;;;8.73;7.88;;;17.20;95.50;;;;;;4976039;28;20027;-81
2023/09/09 03:21:04;;;;;;;9.88;8.88;;;17.20;95.30;;;;;;4971953;28;20041;-81
2023/09/09 03:23:30;;;;;;;11.55;8.90;;;17.20;94.60;;;;;;4970943;28;20134;-79
2023/09/09 03:25:55;;;;;;;10.02;8.77;;;17.10;94.60;;;;;;4978792;28;20062;-81
2023/09/09 03:28:21;;;;;;;9.15;8.18;;;17.10;94.80;;;;;;4971030;28;20038;-81
2023/09/09 03:30:56;;;;;;;14.63;8.68;;;17.10;95.70;;;;;;4974961;28;20482;-81
2023/09/09 03:33:22;;;;;;;10.25;8.07;;;17.10;95.20;;;;;;4975054;28;20046;-80
2023/09/09 03:35:48;;;;;;;10.20;8.45;;;17.00;95.40;;;;;;4958313;28;20030;-80
2023/09/09 03:38:13;;;;;;;10.30;8.55;;;16.90;96.30;;;;;;4971500;28;20035;-80
2023/09/09 03:40:39;;;;;;;8.75;7.43;;;16.90;95.70;;;;;;4973503;28;20944;-80
2023/09/09 03:43:05;;;;;;;9.70;8.70;;;16.90;96.40;;;;;;4954389;28;20027;-79
2023/09/09 03:45:31;;;;;;;9.43;8.45;;;16.90;96.60;;;;;;4975368;28;20138;-81
2023/09/09 03:47:56;;;;;;;10.55;8.65;;;16.90;96.50;;;;;;4975640;28;20121;-80
2023/09/09 03:50:22;;;;;;;12.90;8.02;;;17.00;97.10;;;;;;4973377;28;20113;-80
2023/09/09 03:52:47;;;;;;;10.30;8.68;;;16.90;97.00;;;;;;4973086;28;20398;-80
2023/09/09 03:55:13;;;;;;;12.73;8.25;;;16.90;96.40;;;;;;4972868;28;20046;-80
2023/09/09 03:57:39;;;;;;;10.40;9.07;;;16.90;95.70;;;;;;4955994;28;20031;-80
2023/09/09 04:00:07;;;;;;;13.73;9.10;;;16.80;96.30;;;;;;4973904;28;20046;-80
2023/09/09 04:02:33;;;;;;;9.73;8.32;;;16.80;97.10;;;;;;4959877;28;20038;-79
2023/09/09 04:04:59;;;;;;;10.68;8.63;;;16.80;97.20;;;;;;4972369;28;20053;-80
2023/09/09 04:07:24;;;;;;;9.30;8.40;;;16.80;96.70;;;;;;4939789;28;20054;-79
2023/09/09 04:09:50;;;;;;;9.25;8.18;;;16.80;98.20;;;;;;4960096;28;20023;-79
2023/09/09 04:12:16;;;;;;;10.02;8.88;;;16.80;98.50;;;;;;4958160;28;20023;-80
2023/09/09 04:14:41;;;;;;;11.45;8.50;;;16.80;98.20;;;;;;4974313;28;20121;-80
2023/09/09 04:17:07;;;;;;;10.68;8.50;;;16.70;97.80;;;;;;4956848;28;20154;-79
2023/09/09 04:19:33;;;;;;;12.40;8.65;;;16.70;97.50;;;;;;4973242;28;20045;-79
2023/09/09 04:21:59;;;;;;;10.43;8.93;;;16.70;99.90;;;;;;4976497;28;20064;-81
2023/09/09 04:24:26;;;;;;;10.80;8.88;;;16.60;99.90;;;;;;4973746;28;20056;-80
2023/09/09 04:26:51;;;;;;;15.02;9.68;;;16.60;99.90;;;;;;4973182;28;20637;-80
2023/09/09 04:29:17;;;;;;;12.40;9.30;;;16.60;99.90;;;;;;4960462;28;20047;-80
2023/09/09 04:31:43;;;;;;;10.23;8.98;;;16.60;99.90;;;;;;4956677;28;20045;-80
2023/09/09 04:34:10;;;;;;;14.40;8.80;;;16.70;99.90;;;;;;4956279;28;20026;-79
2023/09/09 04:36:36;;;;;;;9.52;8.52;;;16.60;99.40;;;;;;4972277;28;20038;-81
2023/09/09 04:39:02;;;;;;;10.23;8.95;;;16.60;99.90;;;;;;4972408;28;20525;-80
2023/09/09 04:41:27;;;;;;;9.93;8.93;;;16.50;99.10;;;;;;4972378;28;20034;-80
2023/09/09 04:43:53;;;;;;;11.80;9.20;;;16.50;99.90;;;;;;4978171;28;20046;-79
2023/09/09 04:46:19;;;;;;;11.45;8.73;;;16.40;99.90;;;;;;4971398;28;20380;-80
2023/09/09 04:48:44;;;;;;;9.93;8.93;;;16.40;99.90;;;;;;4952581;28;20439;-80
2023/09/09 04:51:10;;;;;;;12.70;8.93;;;16.30;99.90;;;;;;4974654;28;20054;-80
2023/09/09 04:53:35;;;;;;;9.38;8.38;;;16.20;99.90;;;;;;4972872;28;20038;-79
2023/09/09 04:56:03;;;;;;;10.85;9.23;;;16.30;99.90;;;;;;4974846;28;20038;-79
2023/09/09 04:58:29;;;;;;;12.63;9.18;;;16.30;99.90;;;;;;4970742;28;20035;-80
2023/09/09 05:00:54;;;;;;;11.70;8.90;;;16.30;99.90;;;;;;4971765;28;20047;-81
2023/09/09 05:03:20;;;;;;;10.80;9.70;;;16.30;99.90;;;;;;4974718;28;20041;-79
2023/09/09 05:05:45;;;;;;;13.73;9.95;;;16.30;99.90;;;;;;4972234;28;20097;-80
2023/09/09 05:08:11;;;;;;;10.27;9.25;;;16.30;99.90;;;;;;4986012;28;20031;-81
2023/09/09 05:10:37;;;;;;;10.27;8.95;;;16.30;99.90;;;;;;4957083;28;20185;-80
2023/09/09 05:13:04;;;;;;;10.68;9.57;;;16.20;99.90;;;;;;4973322;28;20108;-81
2023/09/09 05:15:30;;;;;;;9.80;8.60;;;16.20;99.90;;;;;;4961288;28;20035;-81
2023/09/09 05:17:55;;;;;;;13.93;8.68;;;16.20;99.90;;;;;;4973759;28;20035;-81
2023/09/09 05:20:21;;;;;;;11.88;9.98;;;16.10;99.90;;;;;;4973804;28;20128;-81
2023/09/09 05:22:47;;;;;;;11.10;9.20;;;16.20;99.90;;;;;;4974254;28;20027;-78
2023/09/09 05:25:13;;;;;;;12.88;9.38;;;16.20;99.90;;;;;;4972851;28;20050;-80
2023/09/09 05:27:38;;;;;;;9.50;8.60;;;16.20;99.90;;;;;;4987222;28;20051;-79
2023/09/09 05:30:05;;;;;;;10.85;8.25;;;16.20;99.90;;;;;;4971315;28;20034;-80
2023/09/09 05:32:31;;;;;;;9.60;6.70;;;16.20;99.90;;;;;;4971036;28;20062;-79
2023/09/09 05:34:56;;;;;;;12.80;9.23;;;16.30;99.90;;;;;;4956730;28;20476;-79
2023/09/09 05:37:22;;;;;;;8.23;7.15;;;16.40;99.90;;;;;;4965854;28;20057;-80
2023/09/09 05:39:47;;;;;;;8.63;7.22;;;16.40;99.90;;;;;;4956269;28;20150;-79
2023/09/09 05:42:13;;;;;;;8.13;7.38;;;16.40;99.90;;;;;;4972076;28;20091;-79
2023/09/09 05:44:39;;;;;;;9.85;7.88;;;16.50;99.90;;;;;;4970183;28;20126;-79
2023/09/09 05:47:08;;;;;;;11.75;8.48;;;16.50;99.90;;;;;;4970774;28;20042;-78
2023/09/09 05:49:33;;;;;;;12.60;9.32;;;16.50;99.90;;;;;;4973242;28;20045;-79
2023/09/09 05:51:59;;;;;;;8.48;7.28;;;16.50;99.90;;;;;;4975492;28;20039;-80
2023/09/09 05:54:25;;;;;;;10.77;8.98;;;16.60;99.90;;;;;;4970985;28;20039;-79
2023/09/09 05:56:50;;;;;;;10.48;8.77;;;16.70;99.90;;;;;;4953931;28;20043;-79
2023/09/09 05:59:16;;;;;;;10.82;7.60;;;16.80;99.90;;;;;;4971938;28;20057;-79
2023/09/09 06:01:42;;;;;;;9.45;8.25;;;16.80;99.90;;;;;;4971531;28;20037;-80
2023/09/09 06:04:07;;;;;;;8.60;7.05;;;16.90;99.90;;;;;;4975294;28;20046;-80
2023/09/09 06:06:33;;;;;;;8.15;6.97;;;16.90;99.90;;;;;;4970558;28;20047;-80
2023/09/09 06:08:58;;;;;;;10.43;8.40;;;17.00;99.90;;;;;;4969911;28;20479;-80
2023/09/09 06:11:25;;;;;;;9.93;7.47;;;17.20;99.90;;;;;;4971564;28;20387;-79
2023/09/09 06:13:51;;;;;;;6.95;6.25;;;17.10;99.90;;;;;;4975924;28;20034;-80
2023/09/09 06:16:17;;;;;;;6.80;5.78;;;17.30;99.90;;;;;;4970064;28;20050;-79
2023/09/09 06:18:42;;;;;;;10.02;7.88;;;17.50;99.90;;;;;;4975586;28;20034;-79
2023/09/09 06:21:08;;;;;;;7.82;5.90;;;17.60;99.90;;;;;;4976509;28;20187;-79
2023/09/09 06:23:35;;;;;;;11.73;8.30;;;17.60;99.90;;;;;;4989072;28;20026;-80
2023/09/09 06:26:01;;;;;;;10.60;6.70;;;17.70;99.90;;;;;;4972263;28;20031;-79
2023/09/09 06:28:26;;;;;;;8.75;6.88;;;17.90;99.90;;;;;;4967863;28;20068;-79
2023/09/09 06:30:52;;;;;;;10.75;6.50;;;18.00;99.90;;;;;;4970306;28;20031;-79
2023/09/09 06:33:17;;;;;;;6.68;5.97;;;18.10;99.90;;;;;;4969453;28;20063;-79
2023/09/09 06:35:52;;;;;;;6.32;5.53;;;18.30;99.90;;;;;;4972306;28;20035;-80
2023/09/09 06:38:19;;;;;;;8.70;7.50;;;18.40;99.90;;;;;;4968994;28;20913;-80
2023/09/09 06:40:45;;;;;;;8.50;7.13;;;18.60;99.90;;;;;;4969525;28;20035;-80
2023/09/09 06:43:11;;;;;;;7.78;6.45;;;18.70;99.90;;;;;;4972877;28;20046;-80
2023/09/09 06:45:36;;;;;;;10.23;7.38;;;18.80;99.90;;;;;;4968878;28;20043;-80
2023/09/09 06:48:03;;;;;;;7.07;5.90;;;19.00;99.90;;;;;;4971226;28;20077;-81
2023/09/09 06:50:30;;;;;;;9.82;6.90;;;19.10;99.90;;;;;;4972250;28;20069;-80
2023/09/09 06:52:55;;;;;;;7.75;6.93;;;19.20;99.90;;;;;;4956603;28;20542;-80
2023/09/09 06:55:21;;;;;;;7.55;5.43;;;19.30;99.90;;;;;;4973106;28;20039;-78
2023/09/09 06:57:46;;;;;;;8.20;6.97;;;19.40;99.90;;;;;;4973959;28;20125;-77
2023/09/09 07:00:12;;;;;;;11.00;6.53;;;19.50;99.90;;;;;;4972061;28;20530;-77
2023/09/09 07:02:40;;;;;;;6.50;5.03;;;19.70;99.90;;;;;;4987733;28;20491;-77
2023/09/09 07:05:07;;;;;;;6.18;5.57;;;19.80;99.90;;;;;;4968882;28;20033;-78
2023/09/09 07:07:33;;;;;;;6.35;5.68;;;19.90;99.90;;;;;;4966498;28;20026;-77
2023/09/09 07:09:58;;;;;;;8.48;5.70;;;20.10;99.90;;;;;;4987912;28;20433;-76
2023/09/09 07:12:24;;;;;;;15.45;7.82;;;20.30;99.90;;;;;;4971380;28;20038;-78
2023/09/09 07:14:49;;;;;;;8.07;6.47;;;20.40;99.90;;;;;;4975592;28;20034;-76
2023/09/09 07:17:15;;;;;;;7.72;6.50;;;20.60;99.90;;;;;;4970313;28;20538;-77
2023/09/09 07:19:41;;;;;;;9.80;5.47;;;20.70;99.90;;;;;;4970226;28;20479;-78
2023/09/09 07:22:06;;;;;;;7.07;5.47;;;20.80;99.80;;;;;;4976985;28;20062;-77
2023/09/09 07:24:32;;;;;;;12.23;6.00;;;21.00;99.60;;;;;;4973879;28;20439;-77
2023/09/09 07:27:00;;;;;;;8.30;6.70;;;21.20;99.30;;;;;;4960928;28;20045;-77
2023/09/09 07:29:26;;;;;;;11.18;5.45;;;21.40;99.30;;;;;;4970745;28;20366;-77
2023/09/09 07:31:54;;;;;;;7.53;5.90;;;21.50;99.10;;;;;;4955459;28;20027;-77
2023/09/09 07:34:19;;;;;;;9.35;5.93;;;21.80;99.30;;;;;;4967449;28;20051;-77
2023/09/09 07:36:45;;;;;;;8.18;5.88;;;21.90;99.10;;;;;;4989728;28;20329;-77
2023/09/09 07:39:11;;;;;;;11.88;6.88;;;22.10;99.10;;;;;;4972375;28;20360;-77
2023/09/09 07:41:36;;;;;;;9.40;5.95;;;22.20;99.30;;;;;;4971024;28;20034;-77
2023/09/09 07:44:02;;;;;;;5.88;5.03;;;22.30;99.10;;;;;;4972449;28;20038;-77
2023/09/09 07:46:28;;;;;;;7.00;5.20;;;22.60;98.90;;;;;;4956433;28;20041;-77
2023/09/09 07:48:54;;;;;;;7.05;5.78;;;22.90;98.60;;;;;;4973874;28;20027;-77
2023/09/09 07:51:20;;;;;;;12.18;5.50;;;22.80;98.40;;;;;;4974075;28;20293;-77
2023/09/09 07:53:46;;;;;;;7.80;6.15;;;23.10;98.40;;;;;;4968368;28;20034;-76
2023/09/09 07:56:12;;;;;;;10.50;5.22;;;23.10;97.20;;;;;;4972824;28;20069;-77
2023/09/09 07:58:37;;;;;;;9.10;6.03;;;23.40;97.50;;;;;;4976701;28;20035;-77
2023/09/09 08:01:04;;;;;;;8.57;5.03;;;23.30;97.20;;;;;;4960685;28;20035;-78
2023/09/09 08:03:30;;;;;;;9.02;7.00;;;23.60;97.80;;;;;;4978166;28;20038;-77
2023/09/09 08:06:02;;;;;;;5.88;5.28;;;23.70;96.40;;;;;;4978873;28;20038;-77
2023/09/09 08:08:29;;;;;;;6.00;5.18;;;23.70;97.20;;;;;;4975325;28;20077;-78
2023/09/09 08:10:54;;;;;;;8.60;6.28;;;23.90;96.90;;;;;;4973912;28;20062;-77
2023/09/09 08:13:20;;;;;;;5.90;5.30;;;24.20;97.00;;;;;;4971317;28;20035;-77
2023/09/09 08:15:46;;;;;;;6.72;5.22;;;24.30;96.10;;;;;;4972657;28;20065;-77
2023/09/09 08:18:12;;;;;;;7.53;6.07;;;24.60;96.10;;;;;;4974419;28;20066;-77
2023/09/09 08:20:38;;;;;;;8.98;5.75;;;24.80;96.10;;;;;;4989648;28;20438;-77
2023/09/09 08:23:05;;;;;;;6.55;5.40;;;24.90;96.40;;;;;;4975138;28;20073;-78
2023/09/09 08:25:32;;;;;;;6.18;5.57;;;25.00;95.70;;;;;;4972311;28;20046;-79
2023/09/09 08:28:03;;;;;;;6.03;5.30;;;25.30;96.10;;;;;;4974910;28;20082;-78
2023/09/09 08:30:32;;;;;;;8.65;5.95;;;25.40;94.90;;;;;;4974695;28;20403;-78
2023/09/09 08:32:58;;;;;;;8.57;5.75;;;25.50;94.80;;;;;;4957886;28;20035;-78
2023/09/09 08:35:23;;;;;;;7.53;5.90;;;25.90;94.70;;;;;;4977425;28;20241;-79
2023/09/09 08:37:50;;;;;;;9.32;6.72;;;26.10;94.30;;;;;;4982549;28;20499;-79
2023/09/09 08:40:16;;;;;;;11.50;5.57;;;26.20;94.20;;;;;;4973849;28;20030;-80
2023/09/09 08:42:54;;;;;;;8.05;5.70;;;26.50;93.90;;;;;;4962462;28;20046;-78
2023/09/09 08:46:00;;;;;;;8.40;6.03;;;26.50;93.50;;;;;;4976219;28;20081;-79
2023/09/09 08:48:25;;;;;;;7.43;5.97;;;26.80;93.90;;;;;;4953194;28;20038;-78
2023/09/09 08:50:51;;;;;;;9.43;5.82;;;26.50;93.70;;;;;;4951513;28;20057;-79
2023/09/09 08:53:17;;;;;;;7.90;5.05;;;26.70;93.60;;;;;;4973117;28;20024;-79
2023/09/09 08:55:43;;;;;;;7.43;5.53;;;26.40;94.80;;;;;;4973630;28;20410;-78
2023/09/09 08:58:09;;;;;;;10.75;5.72;;;26.80;94.00;;;;;;4960329;28;20438;-79
2023/09/09 09:00:35;;;;;;;7.03;4.70;;;27.00;93.80;;;;;;4985489;28;20514;-79
2023/09/09 09:03:01;;;;;;;8.20;5.07;;;27.10;93.40;;;;;;4971281;28;20046;-80
2023/09/09 09:05:31;;;;;;;6.78;5.10;;;27.50;92.70;;;;;;4967807;28;20135;-79
2023/09/09 09:07:56;;;;;;;8.82;5.13;;;28.10;91.80;;;;;;4955880;28;20039;-79
2023/09/09 09:10:22;;;;;;;13.27;6.68;;;28.00;92.00;;;;;;4962243;28;20034;-79
2023/09/09 09:12:48;;;;;;;8.88;6.07;;;27.50;92.90;;;;;;4971127;28;20031;-81
2023/09/09 09:15:14;;;;;;;9.20;5.78;;;27.40;93.40;;;;;;4974103;28;20041;-80
2023/09/09 09:17:43;;;;;;;6.63;4.82;;;27.00;94.00;;;;;;4973837;28;20515;-79
2023/09/09 09:20:28;;;;;;;6.05;5.18;;;26.80;95.00;;;;;;4971190;28;20041;-79
2023/09/09 09:23:00;;;;;;;12.00;5.50;;;27.50;93.80;;;;;;4953325;28;20528;-79
2023/09/09 09:25:26;;;;;;;12.95;6.40;;;27.90;93.40;;;;;;4953322;28;20050;-78
2023/09/09 09:27:55;;;;;;;9.48;5.63;;;27.90;94.00;;;;;;4970221;28;20038;-79
2023/09/09 09:30:24;;;;;;;8.02;4.60;;;27.50;94.50;;;;;;4971409;28;20043;-80
2023/09/09 09:32:53;;;;;;;12.40;6.43;;;27.50;94.50;;;;;;4970311;28;20034;-79
2023/09/09 09:35:25;;;;;;;9.50;4.75;;;28.20;94.00;;;;;;4957549;28;20038;-80
2023/09/09 09:38:00;;;;;;;10.55;5.40;;;28.50;92.70;;;;;;4973563;28;20026;-81
2023/09/09 09:40:28;;;;;;;8.65;5.75;;;28.00;93.90;;;;;;4974813;28;20042;-79
2023/09/09 09:42:54;;;;;;;10.05;5.13;;;28.30;93.70;;;;;;4974251;28;20081;-81
2023/09/09 09:45:24;;;;;;;10.70;5.32;;;28.80;93.10;;;;;;4960311;28;20057;-81
2023/09/09 09:47:50;;;;;;;12.07;5.63;;;29.60;91.30;;;;;;4974009;28;20051;-82
2023/09/09 09:50:28;;;;;;;6.70;4.82;;;29.60;91.60;;;;;;4978269;28;20915;-83
2023/09/09 09:53:06;;;;;;;9.25;5.07;;;29.40;92.50;;;;;;4984387;28;20034;-82
2023/09/09 09:55:35;;;;;;;11.20;5.03;;;29.80;90.80;;;;;;4977673;28;20434;-82
2023/09/09 09:58:05;;;;;;;10.02;5.40;;;30.30;90.10;;;;;;4959079;28;20046;-82
2023/09/09 10:00:30;;;;;;;10.88;4.70;;;29.90;91.50;;;;;;4974519;28;20042;-82
2023/09/09 10:02:57;;;;;;;13.88;5.45;;;30.10;90.80;;;;;;4993778;28;20114;-83
2023/09/09 10:05:24;;;;;;;8.80;5.47;;;29.50;92.20;;;;;;4991401;28;20061;-82
2023/09/09 10:08:16;;;;;;;13.25;4.72;;;29.10;93.20;;;;;;4976458;28;20134;-82
2023/09/09 10:11:12;;;;;;;10.80;4.97;;;29.80;91.50;;;;;;4961763;28;20074;-82
2023/09/09 10:13:49;;;;;;;8.38;5.10;;;30.80;89.30;;;;;;4964910;28;20102;-81
2023/09/09 10:16:15;;;;;;;9.02;4.82;;;31.70;86.00;;;;;;4961869;28;20305;-82
2023/09/09 10:18:40;;;;;;;8.52;5.18;;;31.60;85.30;;;;;;4980072;28;20027;-82
2023/09/09 10:21:06;;;;;;;7.32;4.90;;;31.50;85.90;;;;;;4973210;28;20049;-81
2023/09/09 10:23:32;;;;;;;9.73;4.43;;;31.40;86.50;;;;;;4972861;28;20023;-82
2023/09/09 10:25:59;;;;;;;10.02;3.95;;;31.20;86.50;;;;;;4968682;28;20039;-82
2023/09/09 10:28:24;;;;;;;9.48;5.25;;;31.30;85.60;;;;;;4949841;28;20767;-81
2023/09/09 10:30:50;;;;;;;11.73;5.97;;;31.70;85.00;;;;;;4972553;28;20034;-81
2023/09/09 10:33:15;;;;;;;10.88;5.10;;;32.10;82.70;;;;;;4966257;28;20043;-81
2023/09/09 10:35:42;;;;;;;7.70;4.65;;;33.00;79.30;;;;;;4953581;28;20033;-82
2023/09/09 10:38:10;;;;;;;11.07;5.05;;;33.20;78.20;;;;;;4970929;28;20034;-81
2023/09/09 10:40:36;;;;;;;8.00;4.28;;;33.20;78.50;;;;;;4967971;28;20502;-81
2023/09/09 10:43:01;;;;;;;8.75;4.50;;;33.00;78.40;;;;;;4975747;28;20085;-82
2023/09/09 10:45:28;;;;;;;12.32;4.38;;;32.70;80.00;;;;;;4940523;28;20031;-81
2023/09/09 10:48:03;;;;;;;8.75;4.97;;;32.60;81.10;;;;;;4956658;28;20494;-79
2023/09/09 10:50:49;;;;;;;;;;;32.80;79.20;;;;;;4971557;28;20035;-80
2023/09/09 10:53:28;;;;;;;13.10;5.47;;;33.30;78.90;;;;;;4972758;28;19910;-81
2023/09/09 10:55:55;;;;;;;9.30;5.35;;;33.60;78.20;;;;;;4969589;28;20037;-79
2023/09/09 10:58:34;;;;;;;10.63;4.95;;;33.10;80.50;;;;;;4970727;28;20042;-80
2023/09/09 11:01:24;;;;;;;7.68;4.20;;;33.10;79.70;;;;;;4969336;28;20470;-78
2023/09/09 11:03:51;;;;;;;10.60;4.78;;;33.90;76.60;;;;;;4968924;28;20490;-79
2023/09/09 11:06:24;;;;;;;8.82;4.72;;;34.20;76.20;;;;;;4954255;28;20023;-80
2023/09/09 11:08:54;;;;;;;17.08;5.18;;;34.20;76.10;;;;;;4950907;28;20216;-78
2023/09/09 11:11:30;;;;;;;8.85;4.40;;;33.60;78.10;;;;;;4972888;28;20027;-79
2023/09/09 11:14:02;;;;;;;9.25;4.10;;;33.90;76.60;;;;;;4951896;28;20030;-78
2023/09/09 11:16:38;;;;;;;6.80;4.53;;;34.00;76.80;;;;;;4967546;28;20529;-78
2023/09/09 11:19:04;;;;;;;12.32;5.50;;;33.80;77.50;;;;;;3945311;28;10001342;-78
2023/09/09 11:21:34;;;;;;;8.27;4.18;;;33.70;79.00;;;;;;4981962;28;20326;-78
2023/09/09 11:24:00;;;;;;;10.07;4.25;;;33.60;78.40;;;;;;4974830;28;20388;-78
2023/09/09 11:26:27;;;;;;;7.70;3.85;;;33.90;76.50;;;;;;4969512;28;20027;-78
2023/09/09 11:28:53;;;;;;;11.65;4.57;;;33.80;75.90;;;;;;4969955;28;20038;-78
2023/09/09 11:31:19;;;;;;;14.55;4.65;;;34.00;75.20;;;;;;4968942;28;20034;-78
2023/09/09 11:33:45;;;;;;;9.68;3.92;;;34.30;74.50;;;;;;4975092;28;20030;-79
2023/09/09 11:36:17;;;;;;;9.63;4.10;;;33.70;77.00;;;;;;4973770;28;20110;-77
2023/09/09 11:38:43;;;;;;;6.65;3.80;;;33.80;76.60;;;;;;4989586;28;20486;-78
2023/09/09 11:41:09;;;;;;;8.32;4.43;;;34.60;74.10;;;;;;4971551;28;20121;-78
2023/09/09 11:43:36;;;;;;;14.98;4.95;;;34.90;73.50;;;;;;4958647;28;20114;-78
2023/09/09 11:46:01;;;;;;;7.07;4.40;;;34.70;73.80;;;;;;4975536;28;20038;-78
2023/09/09 11:48:27;;;;;;;7.47;4.28;;;34.40;74.20;;;;;;4972987;28;20066;-78
2023/09/09 11:50:52;;;;;;;11.68;6.07;;;35.00;73.10;;;;;;4975518;28;20026;-78
2023/09/09 11:53:21;;;;;;;14.65;4.63;;;34.90;73.00;;;;;;4982713;28;20038;-78
2023/09/09 11:55:52;;;;;;;9.00;4.78;;;34.60;74.30;;;;;;4973595;28;20038;-78
2023/09/09 11:58:18;;;;;;;9.13;4.50;;;35.50;70.80;;;;;;4953996;28;20126;-77
2023/09/09 12:00:43;;;;;;;8.95;4.35;;;35.60;70.90;;;;;;4975106;28;20125;-79
2023/09/09 12:03:09;;;;;;;14.15;5.45;;;36.10;68.80;;;;;;4958077;28;20027;-80
2023/09/09 12:05:34;;;;;;;8.70;4.72;;;36.30;68.50;;;;;;4978275;28;20421;-79
2023/09/09 12:08:01;;;;;;;9.07;4.30;;;36.40;67.20;;;;;;4956004;28;20050;-79
2023/09/09 12:10:33;;;;;;;10.18;4.30;;;36.60;66.80;;;;;;4627052;28;10000319;-79
2023/09/09 12:12:59;;;;;;;8.23;4.30;;;36.40;67.30;;;;;;4968407;28;20061;-79
2023/09/09 12:15:24;;;;;;;17.83;5.38;;;36.40;67.40;;;;;;4971316;28;20031;-79
2023/09/09 12:17:50;;;;;;;7.72;4.85;;;36.50;66.40;;;;;;4970788;28;20355;-79
2023/09/09 12:20:16;;;;;;;11.32;4.30;;;36.20;68.20;;;;;;4973001;28;20097;-79
2023/09/09 12:22:47;;;;;;;9.52;3.90;;;36.40;66.60;;;;;;4971961;28;20049;-80
2023/09/09 12:25:37;;;;;;;13.60;4.97;;;36.50;67.50;;;;;;4966030;28;20062;-79
2023/09/09 12:28:03;;;;;;;8.98;4.68;;;35.50;69.70;;;;;;4970169;28;20340;-79
2023/09/09 12:30:39;;;;;;;9.20;5.05;;;35.10;71.70;;;;;;4974439;28;20519;-79
2023/09/09 12:33:11;;;;;;;10.55;4.90;;;34.80;72.50;;;;;;4969142;28;20527;-78
2023/09/09 12:35:42;;;;;;;10.27;4.78;;;36.00;69.20;;;;;;4969436;28;20504;-79
2023/09/09 12:38:08;;;;;;;11.68;5.88;;;35.60;70.60;;;;;;4953980;28;20026;-79
2023/09/09 12:40:53;;;;;;;13.65;4.90;;;36.40;68.50;;;;;;4968288;28;20458;-79
2023/09/09 12:43:24;;;;;;;8.18;4.60;;;36.20;68.70;;;;;;4960507;28;20251;-80